Isola Bianca — ICLD — position and weather

sailwx.info

Track history (hours):
 
Tides and Currents Weather Stations Pressure Air Temp Water Temp Dewpoint Dewpoint Depression Visibility Wind Speed Wind Dir Waves Ship Positions

Isola Bianca

Last reported at 2016-May-26 18:13 UTC. Time now 2016-May-31 04:02 UTC.
Position N 13°30' W 017°58'.

Length 183 m; draft 12.1 m.

Type: Ship. MMSI: 247245200.

Date/timePositionNaut miles runAvg speedWind from/ knotsBaromVisibWave heightAir tempDewpointWater temp
2016-May-26 18:13N 13°30' W 017°58'1012.8
2016-May-26 17:25N 13°40' W 017°58'12712.8
2016-May-26 07:34N 15°47' W 017°56'  
2016-May-23 20:33N 27°06' W 014°16'1212.4
2016-May-23 19:33N 27°16' W 014°09'1212.5
2016-May-23 18:33N 27°27' W 014°02'1212.4
2016-May-23 17:33N 27°38' W 013°55'1212.4
2016-May-23 16:33N 27°49' W 013°48'1212.3
2016-May-23 15:33N 27°59' W 013°41'1212.3
2016-May-23 14:33N 28°09' W 013°33'1212.4
2016-May-23 13:33N 28°20' W 013°25'1312.6
2016-May-23 12:33N 28°30' W 013°17'1312.5
2016-May-23 11:31N 28°41' W 013°09'51312.8
2016-May-21 19:30N 35°19' W 006°47'7612.6
2016-May-21 13:27N 35°60' W 005°28'5 5.8
2016-May-21 12:33N 36°04' W 005°24'2 1.7
2016-May-21 11:32N 36°05' W 005°22'18012.0
2016-May-20 20:33N 36°18' W 001°40'1212.0
2016-May-20 19:33N 36°21' W 001°26'1311.6
2016-May-20 18:27N 36°24' W 001°10'1011.5
2016-May-20 17:33N 36°26' W 000°57'1212.0
2016-May-20 16:33N 36°29' W 000°43'1312.6
2016-May-20 15:32N 36°31' W 000°27'2713.4
2016-May-20 13:30N 36°38' E 000°06'1314.0
2016-May-20 12:33N 36°41' E 000°22'52111.8
2016-May-18 16:29N 37°27' E 011°12'1111.9
2016-May-18 15:33N 37°22' E 011°24'1212.0
2016-May-18 14:33N 37°16' E 011°38'1212.0
2016-May-18 13:32N 37°11' E 011°51'1212.0
2016-May-18 12:33N 37°05' E 012°04'1211.7
2016-May-18 11:33N 37°00' E 012°18'1211.6
2016-May-18 10:34N 36°55' E 012°30'1111.4
2016-May-18 09:33N 36°50' E 012°43'1111.0
2016-May-18 08:34N 36°45' E 012°55'1111.3
2016-May-18 07:34N 36°39' E 013°08'1212.1
2016-May-18 06:33N 36°34' E 013°21'1212.3
2016-May-18 05:33N 36°29' E 013°35'1312.6
2016-May-18 04:33N 36°23' E 013°49'1312.4
2016-May-18 03:32N 36°17' E 014°03'1212.1
2016-May-18 02:33N 36°12' E 014°16'1211.7
2016-May-18 01:33N 36°07' E 014°29'1211.6
2016-May-18 00:33N 36°01' E 014°41'1111.2
2016-May-17 23:33N 35°53' E 014°50'5 4.9
2016-May-17 22:33N 35°49' E 014°54'0 0.2
2016-May-17 20:33N 35°49' E 014°55'0 0.0
2016-May-17 19:33N 35°49' E 014°55'0 0.0
2016-May-17 18:24N 35°49' E 014°55'0 0.0
2016-May-17 17:33N 35°49' E 014°55'0 0.0
2016-May-17 16:33N 35°48' E 014°55'0 0.0
2016-May-17 15:33N 35°49' E 014°55'0 0.0
2016-May-17 14:33N 35°48' E 014°55'0 0.0
2016-May-17 12:28N 35°48' E 014°54'0 0.0
2016-May-17 11:30N 35°48' E 014°54'0 0.0
2016-May-17 09:20N 35°48' E 014°54'0 0.0
2016-May-17 07:28N 35°48' E 014°55'0 0.0
2016-May-17 06:21N 35°48' E 014°55'0 0.0
2016-May-17 02:25N 35°48' E 014°55'0 0.0
2016-May-17 01:16N 35°49' E 014°55'0 0.0
2016-May-17 00:20N 35°49' E 014°55'0 0.0
2016-May-16 23:23N 35°49' E 014°55'0 0.0
2016-May-16 21:15N 35°49' E 014°55'0 0.0
2016-May-16 20:33N 35°49' E 014°55'0 0.0
2016-May-16 19:34N 35°48' E 014°54'0 0.1
2016-May-16 18:34N 35°49' E 014°54'  
Track history (hours):
 
Tides and Currents Weather Stations Pressure Air Temp Water Temp Dewpoint Dewpoint Depression Visibility Wind Speed Wind Dir Waves Ship Positions

Isola Bianca

Last reported at 2016-May-26 18:13 UTC. Time now 2016-May-31 04:02 UTC.
Position N 13°30' W 017°58'.

Length 183 m; draft 12.1 m.

Type: Ship. MMSI: 247245200.

Date/timePositionNaut miles runAvg speedWind from/ knotsBaromVisibWave heightAir tempDewpointWater temp
2016-May-26 18:13N 13°30' W 017°58'1012.8
2016-May-26 17:25N 13°40' W 017°58'12712.8
2016-May-26 07:34N 15°47' W 017°56'  
2016-May-23 20:33N 27°06' W 014°16'1212.4
2016-May-23 19:33N 27°16' W 014°09'1212.5
2016-May-23 18:33N 27°27' W 014°02'1212.4
2016-May-23 17:33N 27°38' W 013°55'1212.4
2016-May-23 16:33N 27°49' W 013°48'1212.3
2016-May-23 15:33N 27°59' W 013°41'1212.3
2016-May-23 14:33N 28°09' W 013°33'1212.4
2016-May-23 13:33N 28°20' W 013°25'1312.6
2016-May-23 12:33N 28°30' W 013°17'1312.5
2016-May-23 11:31N 28°41' W 013°09'51312.8
2016-May-21 19:30N 35°19' W 006°47'7612.6
2016-May-21 13:27N 35°60' W 005°28'5 5.8
2016-May-21 12:33N 36°04' W 005°24'2 1.7
2016-May-21 11:32N 36°05' W 005°22'18012.0
2016-May-20 20:33N 36°18' W 001°40'1212.0
2016-May-20 19:33N 36°21' W 001°26'1311.6
2016-May-20 18:27N 36°24' W 001°10'1011.5
2016-May-20 17:33N 36°26' W 000°57'1212.0
2016-May-20 16:33N 36°29' W 000°43'1312.6
2016-May-20 15:32N 36°31' W 000°27'2713.4
2016-May-20 13:30N 36°38' E 000°06'1314.0
2016-May-20 12:33N 36°41' E 000°22'52111.8
2016-May-18 16:29N 37°27' E 011°12'1111.9
2016-May-18 15:33N 37°22' E 011°24'1212.0
2016-May-18 14:33N 37°16' E 011°38'1212.0
2016-May-18 13:32N 37°11' E 011°51'1212.0
2016-May-18 12:33N 37°05' E 012°04'1211.7
2016-May-18 11:33N 37°00' E 012°18'1211.6
2016-May-18 10:34N 36°55' E 012°30'1111.4
2016-May-18 09:33N 36°50' E 012°43'1111.0
2016-May-18 08:34N 36°45' E 012°55'1111.3
2016-May-18 07:34N 36°39' E 013°08'1212.1
2016-May-18 06:33N 36°34' E 013°21'1212.3
2016-May-18 05:33N 36°29' E 013°35'1312.6
2016-May-18 04:33N 36°23' E 013°49'1312.4
2016-May-18 03:32N 36°17' E 014°03'1212.1
2016-May-18 02:33N 36°12' E 014°16'1211.7
2016-May-18 01:33N 36°07' E 014°29'1211.6
2016-May-18 00:33N 36°01' E 014°41'1111.2
2016-May-17 23:33N 35°53' E 014°50'5 4.9
2016-May-17 22:33N 35°49' E 014°54'0 0.2
2016-May-17 20:33N 35°49' E 014°55'0 0.0
2016-May-17 19:33N 35°49' E 014°55'0 0.0
2016-May-17 18:24N 35°49' E 014°55'0 0.0
2016-May-17 17:33N 35°49' E 014°55'0 0.0
2016-May-17 16:33N 35°48' E 014°55'0 0.0
2016-May-17 15:33N 35°49' E 014°55'0 0.0
2016-May-17 14:33N 35°48' E 014°55'0 0.0
2016-May-17 12:28N 35°48' E 014°54'0 0.0
2016-May-17 11:30N 35°48' E 014°54'0 0.0
2016-May-17 09:20N 35°48' E 014°54'0 0.0
2016-May-17 07:28N 35°48' E 014°55'0 0.0
2016-May-17 06:21N 35°48' E 014°55'0 0.0
2016-May-17 02:25N 35°48' E 014°55'0 0.0
2016-May-17 01:16N 35°49' E 014°55'0 0.0
2016-May-17 00:20N 35°49' E 014°55'0 0.0
2016-May-16 23:23N 35°49' E 014°55'0 0.0
2016-May-16 21:15N 35°49' E 014°55'0 0.0
2016-May-16 20:33N 35°49' E 014°55'0 0.0
2016-May-16 19:34N 35°48' E 014°54'0 0.1
2016-May-16 18:34N 35°49' E 014°54'  

Dump ship's entire track history